Terminal Aerodrome Forecast
Issued by NWS

Home | Current Version | Previous Version | Graphics & Text | Print | Product List | Glossary Off
Versions: 1 2 3 4 5 6 7 8 9 10 11 12 13 14 15 16 17 18 19 20

000
FTUS43 KDDC 250520
TAFHYS
TAF
KHYS 250520Z 2506/2606 VRB06KT P6SM SCT180
     FM250630 34015G25KT P6SM SCT200
     FM252200 35009KT P6SM FEW250=

USA.gov is the U.S. government's official web portal to all federal, state and local government web resources and services.